Weather at Santa Teresa Airport

Public forecast

Using degrees Celsius for public forecast. Weather courtesy of forecast.io.

Closest aviation weather report (METAR) to Santa Teresa Airport

Closest report is Alice Springs Airport, 32.7 nm (60.5 km) NW. Retrieved 2021/06/20 04:00 UTC (6 minutes ago):

YBAS 200400Z AUTO 08007KT 9999 // NCD 16/03 Q1021

Closest aviation forecast (TAF) to Santa Teresa Airport

Closest forecast is Alice Springs Airport, 32.7 nm (60.5 km) NW. Retrieved 2021-06-20 00:00 UTC (4 hours ago):

TAF YBAS 192302Z 2000/2100 10010KT CAVOK FM200800 11005KT CAVOK FM201400 06005KT CAVOK